sensor_id;sensor_type;location;lat;lon;timestamp;P1;durP1;ratioP1;P2;durP2;ratioP2
34317;SDS011;20582;52.196;20.952;2024-02-26T00:01:49;73.22;;;38.00;;
34317;SDS011;20582;52.196;20.952;2024-02-26T00:04:15;75.43;;;38.33;;
34317;SDS011;20582;52.196;20.952;2024-02-26T00:06:41;74.43;;;34.53;;
34317;SDS011;20582;52.196;20.952;2024-02-26T00:09:07;67.97;;;30.70;;
34317;SDS011;20582;52.196;20.952;2024-02-26T00:11:35;56.13;;;26.10;;
34317;SDS011;20582;52.196;20.952;2024-02-26T00:14:01;50.65;;;25.13;;
34317;SDS011;20582;52.196;20.952;2024-02-26T00:16:27;41.28;;;20.08;;
34317;SDS011;20582;52.196;20.952;2024-02-26T00:18:53;56.45;;;26.08;;
34317;SDS011;20582;52.196;20.952;2024-02-26T00:21:19;52.42;;;24.17;;
34317;SDS011;20582;52.196;20.952;2024-02-26T00:23:45;46.58;;;22.90;;
34317;SDS011;20582;52.196;20.952;2024-02-26T00:26:11;43.22;;;20.70;;
34317;SDS011;20582;52.196;20.952;2024-02-26T00:28:37;44.55;;;23.50;;
34317;SDS011;20582;52.196;20.952;2024-02-26T00:31:03;40.60;;;19.92;;
34317;SDS011;20582;52.196;20.952;2024-02-26T00:33:30;38.67;;;19.83;;
34317;SDS011;20582;52.196;20.952;2024-02-26T00:35:56;40.50;;;21.25;;
34317;SDS011;20582;52.196;20.952;2024-02-26T00:38:22;39.72;;;20.17;;
34317;SDS011;20582;52.196;20.952;2024-02-26T00:40:48;40.75;;;21.05;;
34317;SDS011;20582;52.196;20.952;2024-02-26T00:43:14;39.03;;;20.75;;
34317;SDS011;20582;52.196;20.952;2024-02-26T00:45:40;38.22;;;19.88;;
34317;SDS011;20582;52.196;20.952;2024-02-26T00:48:06;39.15;;;19.73;;
34317;SDS011;20582;52.196;20.952;2024-02-26T00:50:32;35.83;;;19.20;;
34317;SDS011;20582;52.196;20.952;2024-02-26T00:52:58;35.97;;;19.88;;
34317;SDS011;20582;52.196;20.952;2024-02-26T00:55:24;35.63;;;18.45;;
34317;SDS011;20582;52.196;20.952;2024-02-26T00:57:50;34.58;;;18.17;;
34317;SDS011;20582;52.196;20.952;2024-02-26T01:00:16;33.45;;;19.08;;
34317;SDS011;20582;52.196;20.952;2024-02-26T01:02:42;38.25;;;20.15;;
34317;SDS011;20582;52.196;20.952;2024-02-26T01:05:11;42.55;;;20.85;;
34317;SDS011;20582;52.196;20.952;2024-02-26T01:07:37;45.70;;;22.30;;
34317;SDS011;20582;52.196;20.952;2024-02-26T01:10:04;46.40;;;22.75;;
34317;SDS011;20582;52.196;20.952;2024-02-26T01:12:31;47.72;;;22.98;;
34317;SDS011;20582;52.196;20.952;2024-02-26T01:14:57;39.15;;;21.13;;
34317;SDS011;20582;52.196;20.952;2024-02-26T01:17:23;44.90;;;21.70;;
34317;SDS011;20582;52.196;20.952;2024-02-26T01:19:49;42.35;;;21.52;;
34317;SDS011;20582;52.196;20.952;2024-02-26T01:22:15;44.80;;;21.85;;
34317;SDS011;20582;52.196;20.952;2024-02-26T01:24:41;47.85;;;22.60;;
34317;SDS011;20582;52.196;20.952;2024-02-26T01:27:07;44.70;;;22.48;;
34317;SDS011;20582;52.196;20.952;2024-02-26T01:29:34;39.75;;;19.88;;
34317;SDS011;20582;52.196;20.952;2024-02-26T01:32:00;44.05;;;20.35;;
34317;SDS011;20582;52.196;20.952;2024-02-26T01:34:26;39.58;;;19.30;;
34317;SDS011;20582;52.196;20.952;2024-02-26T01:36:52;36.55;;;17.63;;
34317;SDS011;20582;52.196;20.952;2024-02-26T01:39:18;37.53;;;19.88;;
34317;SDS011;20582;52.196;20.952;2024-02-26T01:41:44;34.80;;;18.52;;
34317;SDS011;20582;52.196;20.952;2024-02-26T01:44:11;38.10;;;18.80;;
34317;SDS011;20582;52.196;20.952;2024-02-26T01:49:07;39.22;;;18.40;;
34317;SDS011;20582;52.196;20.952;2024-02-26T01:51:34;38.42;;;18.48;;
34317;SDS011;20582;52.196;20.952;2024-02-26T01:54:01;37.00;;;19.13;;
34317;SDS011;20582;52.196;20.952;2024-02-26T01:56:28;36.75;;;19.17;;
34317;SDS011;20582;52.196;20.952;2024-02-26T01:58:58;40.63;;;19.08;;
34317;SDS011;20582;52.196;20.952;2024-02-26T02:01:31;36.92;;;19.45;;
34317;SDS011;20582;52.196;20.952;2024-02-26T02:03:58;37.80;;;19.67;;
34317;SDS011;20582;52.196;20.952;2024-02-26T02:06:24;40.05;;;19.50;;
34317;SDS011;20582;52.196;20.952;2024-02-26T02:08:50;37.60;;;19.90;;
34317;SDS011;20582;52.196;20.952;2024-02-26T02:11:16;38.38;;;18.98;;
34317;SDS011;20582;52.196;20.952;2024-02-26T02:13:42;37.42;;;19.70;;
34317;SDS011;20582;52.196;20.952;2024-02-26T02:16:08;36.58;;;17.63;;
34317;SDS011;20582;52.196;20.952;2024-02-26T02:18:34;38.92;;;19.55;;
34317;SDS011;20582;52.196;20.952;2024-02-26T02:21:01;40.67;;;20.55;;
34317;SDS011;20582;52.196;20.952;2024-02-26T02:23:27;36.55;;;19.27;;
34317;SDS011;20582;52.196;20.952;2024-02-26T02:25:52;41.70;;;19.73;;
34317;SDS011;20582;52.196;20.952;2024-02-26T02:28:20;38.45;;;19.75;;
34317;SDS011;20582;52.196;20.952;2024-02-26T02:30:46;38.03;;;19.77;;
34317;SDS011;20582;52.196;20.952;2024-02-26T02:33:12;40.33;;;19.30;;
34317;SDS011;20582;52.196;20.952;2024-02-26T02:35:40;45.05;;;21.80;;
34317;SDS011;20582;52.196;20.952;2024-02-26T02:38:06;53.30;;;24.90;;
34317;SDS011;20582;52.196;20.952;2024-02-26T02:40:32;53.22;;;25.40;;
34317;SDS011;20582;52.196;20.952;2024-02-26T02:42:58;53.17;;;25.13;;
34317;SDS011;20582;52.196;20.952;2024-02-26T02:45:25;63.13;;;30.48;;
34317;SDS011;20582;52.196;20.952;2024-02-26T02:47:51;48.35;;;24.67;;
34317;SDS011;20582;52.196;20.952;2024-02-26T02:50:17;53.00;;;24.70;;
34317;SDS011;20582;52.196;20.952;2024-02-26T02:52:43;48.50;;;24.27;;
34317;SDS011;20582;52.196;20.952;2024-02-26T02:55:09;43.33;;;22.65;;
34317;SDS011;20582;52.196;20.952;2024-02-26T02:57:35;44.78;;;22.55;;
34317;SDS011;20582;52.196;20.952;2024-02-26T03:00:06;48.03;;;23.27;;
34317;SDS011;20582;52.196;20.952;2024-02-26T03:02:32;42.85;;;21.00;;
34317;SDS011;20582;52.196;20.952;2024-02-26T03:05:00;43.05;;;21.83;;
34317;SDS011;20582;52.196;20.952;2024-02-26T03:07:27;41.92;;;21.15;;
34317;SDS011;20582;52.196;20.952;2024-02-26T03:09:53;49.75;;;23.63;;
34317;SDS011;20582;52.196;20.952;2024-02-26T03:12:19;47.28;;;22.05;;
34317;SDS011;20582;52.196;20.952;2024-02-26T03:14:45;48.15;;;23.63;;
34317;SDS011;20582;52.196;20.952;2024-02-26T03:17:11;56.15;;;25.48;;
34317;SDS011;20582;52.196;20.952;2024-02-26T03:19:37;53.60;;;24.65;;
34317;SDS011;20582;52.196;20.952;2024-02-26T03:22:03;50.97;;;23.77;;
34317;SDS011;20582;52.196;20.952;2024-02-26T03:24:29;57.17;;;25.60;;
34317;SDS011;20582;52.196;20.952;2024-02-26T03:26:55;54.40;;;25.67;;
34317;SDS011;20582;52.196;20.952;2024-02-26T03:29:21;62.20;;;27.92;;
34317;SDS011;20582;52.196;20.952;2024-02-26T03:31:47;70.72;;;31.30;;
34317;SDS011;20582;52.196;20.952;2024-02-26T03:34:13;85.10;;;36.03;;
34317;SDS011;20582;52.196;20.952;2024-02-26T03:36:40;77.18;;;36.03;;
34317;SDS011;20582;52.196;20.952;2024-02-26T03:39:06;71.75;;;33.80;;
34317;SDS011;20582;52.196;20.952;2024-02-26T03:41:35;55.95;;;24.52;;
34317;SDS011;20582;52.196;20.952;2024-02-26T03:44:01;45.60;;;22.35;;
34317;SDS011;20582;52.196;20.952;2024-02-26T03:46:27;39.75;;;21.15;;
34317;SDS011;20582;52.196;20.952;2024-02-26T03:48:53;41.10;;;20.20;;
34317;SDS011;20582;52.196;20.952;2024-02-26T03:51:19;42.72;;;20.95;;
34317;SDS011;20582;52.196;20.952;2024-02-26T03:53:45;44.88;;;20.95;;
34317;SDS011;20582;52.196;20.952;2024-02-26T03:56:12;45.28;;;20.10;;
34317;SDS011;20582;52.196;20.952;2024-02-26T03:58:40;46.03;;;22.05;;
34317;SDS011;20582;52.196;20.952;2024-02-26T04:01:07;47.50;;;20.00;;
34317;SDS011;20582;52.196;20.952;2024-02-26T04:03:33;47.10;;;21.63;;
34317;SDS011;20582;52.196;20.952;2024-02-26T04:05:59;40.97;;;19.73;;
34317;SDS011;20582;52.196;20.952;2024-02-26T04:08:25;35.40;;;17.60;;
34317;SDS011;20582;52.196;20.952;2024-02-26T04:10:51;37.53;;;19.20;;
34317;SDS011;20582;52.196;20.952;2024-02-26T04:13:17;40.15;;;19.75;;
34317;SDS011;20582;52.196;20.952;2024-02-26T04:15:44;40.90;;;20.30;;
34317;SDS011;20582;52.196;20.952;2024-02-26T04:18:11;36.10;;;19.55;;
34317;SDS011;20582;52.196;20.952;2024-02-26T04:20:37;39.67;;;18.88;;
34317;SDS011;20582;52.196;20.952;2024-02-26T04:23:03;36.65;;;17.90;;
34317;SDS011;20582;52.196;20.952;2024-02-26T04:25:29;38.28;;;19.17;;
34317;SDS011;20582;52.196;20.952;2024-02-26T04:27:55;38.10;;;19.48;;
34317;SDS011;20582;52.196;20.952;2024-02-26T04:30:21;36.47;;;17.73;;
34317;SDS011;20582;52.196;20.952;2024-02-26T04:32:47;38.10;;;19.20;;
34317;SDS011;20582;52.196;20.952;2024-02-26T04:35:13;35.33;;;18.58;;
34317;SDS011;20582;52.196;20.952;2024-02-26T04:37:39;41.60;;;20.15;;
34317;SDS011;20582;52.196;20.952;2024-02-26T04:40:05;40.20;;;19.20;;
34317;SDS011;20582;52.196;20.952;2024-02-26T04:42:32;37.28;;;17.55;;
34317;SDS011;20582;52.196;20.952;2024-02-26T04:44:58;44.72;;;20.40;;
34317;SDS011;20582;52.196;20.952;2024-02-26T04:47:24;42.63;;;20.73;;
34317;SDS011;20582;52.196;20.952;2024-02-26T04:49:51;43.13;;;21.45;;
34317;SDS011;20582;52.196;20.952;2024-02-26T04:52:18;51.63;;;26.17;;
34317;SDS011;20582;52.196;20.952;2024-02-26T04:54:44;48.92;;;22.55;;
34317;SDS011;20582;52.196;20.952;2024-02-26T04:57:10;44.28;;;23.83;;
34317;SDS011;20582;52.196;20.952;2024-02-26T04:59:36;44.35;;;22.75;;
34317;SDS011;20582;52.196;20.952;2024-02-26T05:02:03;46.72;;;21.27;;
34317;SDS011;20582;52.196;20.952;2024-02-26T05:04:29;45.75;;;20.67;;
34317;SDS011;20582;52.196;20.952;2024-02-26T05:06:55;43.80;;;20.95;;
34317;SDS011;20582;52.196;20.952;2024-02-26T05:09:21;42.42;;;19.45;;
34317;SDS011;20582;52.196;20.952;2024-02-26T05:11:48;42.20;;;20.17;;
34317;SDS011;20582;52.196;20.952;2024-02-26T05:14:14;37.63;;;18.20;;
34317;SDS011;20582;52.196;20.952;2024-02-26T05:16:40;36.53;;;18.73;;
34317;SDS011;20582;52.196;20.952;2024-02-26T05:19:06;41.20;;;20.60;;
34317;SDS011;20582;52.196;20.952;2024-02-26T05:21:32;35.08;;;18.90;;
34317;SDS011;20582;52.196;20.952;2024-02-26T05:23:58;42.47;;;20.27;;
34317;SDS011;20582;52.196;20.952;2024-02-26T05:26:24;42.35;;;20.85;;
34317;SDS011;20582;52.196;20.952;2024-02-26T05:28:50;40.97;;;20.52;;
34317;SDS011;20582;52.196;20.952;2024-02-26T05:31:16;43.17;;;21.15;;
34317;SDS011;20582;52.196;20.952;2024-02-26T05:33:43;41.58;;;21.48;;
34317;SDS011;20582;52.196;20.952;2024-02-26T05:36:10;42.85;;;20.75;;
34317;SDS011;20582;52.196;20.952;2024-02-26T05:38:36;38.67;;;19.65;;
34317;SDS011;20582;52.196;20.952;2024-02-26T05:41:02;41.38;;;21.48;;
34317;SDS011;20582;52.196;20.952;2024-02-26T05:43:29;37.70;;;19.38;;
34317;SDS011;20582;52.196;20.952;2024-02-26T05:45:55;42.70;;;21.98;;
34317;SDS011;20582;52.196;20.952;2024-02-26T05:48:21;42.55;;;22.23;;
34317;SDS011;20582;52.196;20.952;2024-02-26T05:50:47;51.30;;;23.67;;
34317;SDS011;20582;52.196;20.952;2024-02-26T05:53:14;43.30;;;21.95;;
34317;SDS011;20582;52.196;20.952;2024-02-26T05:55:41;42.50;;;19.70;;
34317;SDS011;20582;52.196;20.952;2024-02-26T05:58:07;39.45;;;19.90;;
34317;SDS011;20582;52.196;20.952;2024-02-26T06:00:33;40.03;;;21.02;;
34317;SDS011;20582;52.196;20.952;2024-02-26T06:02:59;39.55;;;20.35;;
34317;SDS011;20582;52.196;20.952;2024-02-26T06:05:25;38.17;;;20.05;;
34317;SDS011;20582;52.196;20.952;2024-02-26T06:07:51;42.13;;;20.48;;
34317;SDS011;20582;52.196;20.952;2024-02-26T06:10:17;37.30;;;19.00;;
34317;SDS011;20582;52.196;20.952;2024-02-26T06:12:46;38.28;;;19.35;;
34317;SDS011;20582;52.196;20.952;2024-02-26T06:15:12;40.83;;;19.92;;
34317;SDS011;20582;52.196;20.952;2024-02-26T06:17:38;39.25;;;19.60;;
34317;SDS011;20582;52.196;20.952;2024-02-26T06:20:04;37.25;;;20.67;;
34317;SDS011;20582;52.196;20.952;2024-02-26T06:22:31;37.95;;;19.65;;
34317;SDS011;20582;52.196;20.952;2024-02-26T06:24:57;35.58;;;19.60;;
34317;SDS011;20582;52.196;20.952;2024-02-26T06:27:23;39.85;;;20.33;;
34317;SDS011;20582;52.196;20.952;2024-02-26T06:29:49;37.72;;;19.98;;
34317;SDS011;20582;52.196;20.952;2024-02-26T06:32:15;33.92;;;18.45;;
34317;SDS011;20582;52.196;20.952;2024-02-26T06:34:41;34.63;;;19.38;;
34317;SDS011;20582;52.196;20.952;2024-02-26T06:37:08;33.90;;;18.52;;
34317;SDS011;20582;52.196;20.952;2024-02-26T06:39:34;32.92;;;17.55;;
34317;SDS011;20582;52.196;20.952;2024-02-26T06:42:00;34.78;;;19.60;;
34317;SDS011;20582;52.196;20.952;2024-02-26T06:44:27;32.25;;;16.95;;
34317;SDS011;20582;52.196;20.952;2024-02-26T06:46:59;35.08;;;18.02;;
34317;SDS011;20582;52.196;20.952;2024-02-26T06:49:26;31.70;;;18.42;;
34317;SDS011;20582;52.196;20.952;2024-02-26T06:51:52;32.00;;;16.77;;
34317;SDS011;20582;52.196;20.952;2024-02-26T06:54:18;32.20;;;18.42;;
34317;SDS011;20582;52.196;20.952;2024-02-26T06:56:44;29.95;;;16.30;;
34317;SDS011;20582;52.196;20.952;2024-02-26T06:59:10;30.70;;;16.33;;
34317;SDS011;20582;52.196;20.952;2024-02-26T07:01:36;30.42;;;16.83;;
34317;SDS011;20582;52.196;20.952;2024-02-26T07:04:02;29.25;;;17.05;;
34317;SDS011;20582;52.196;20.952;2024-02-26T07:06:28;28.55;;;16.98;;
34317;SDS011;20582;52.196;20.952;2024-02-26T07:08:54;29.00;;;16.52;;
34317;SDS011;20582;52.196;20.952;2024-02-26T07:11:20;30.48;;;17.00;;
34317;SDS011;20582;52.196;20.952;2024-02-26T07:13:46;29.92;;;17.35;;
34317;SDS011;20582;52.196;20.952;2024-02-26T07:16:14;28.10;;;16.42;;
34317;SDS011;20582;52.196;20.952;2024-02-26T07:18:40;31.45;;;17.75;;
34317;SDS011;20582;52.196;20.952;2024-02-26T07:21:06;32.85;;;17.10;;
34317;SDS011;20582;52.196;20.952;2024-02-26T07:23:32;29.55;;;17.85;;
34317;SDS011;20582;52.196;20.952;2024-02-26T07:25:58;27.90;;;16.92;;
34317;SDS011;20582;52.196;20.952;2024-02-26T07:28:24;30.30;;;16.45;;
34317;SDS011;20582;52.196;20.952;2024-02-26T07:30:50;32.05;;;18.08;;
34317;SDS011;20582;52.196;20.952;2024-02-26T07:33:16;33.53;;;18.58;;
34317;SDS011;20582;52.196;20.952;2024-02-26T07:35:42;34.95;;;18.25;;
34317;SDS011;20582;52.196;20.952;2024-02-26T07:38:08;33.35;;;18.92;;
34317;SDS011;20582;52.196;20.952;2024-02-26T07:40:34;29.88;;;18.27;;
34317;SDS011;20582;52.196;20.952;2024-02-26T07:43:01;30.05;;;17.73;;
34317;SDS011;20582;52.196;20.952;2024-02-26T07:45:27;28.77;;;17.08;;
34317;SDS011;20582;52.196;20.952;2024-02-26T07:47:53;31.35;;;17.48;;
34317;SDS011;20582;52.196;20.952;2024-02-26T07:50:19;30.10;;;18.38;;
34317;SDS011;20582;52.196;20.952;2024-02-26T07:52:45;28.70;;;16.80;;
34317;SDS011;20582;52.196;20.952;2024-02-26T07:55:11;32.78;;;16.83;;
34317;SDS011;20582;52.196;20.952;2024-02-26T07:57:37;28.65;;;16.50;;
34317;SDS011;20582;52.196;20.952;2024-02-26T08:00:03;28.70;;;18.05;;
34317;SDS011;20582;52.196;20.952;2024-02-26T08:02:34;30.15;;;17.33;;
34317;SDS011;20582;52.196;20.952;2024-02-26T08:05:00;28.80;;;17.25;;
34317;SDS011;20582;52.196;20.952;2024-02-26T08:07:26;28.40;;;17.15;;
34317;SDS011;20582;52.196;20.952;2024-02-26T08:09:52;27.98;;;16.38;;
34317;SDS011;20582;52.196;20.952;2024-02-26T08:12:18;28.52;;;17.17;;
34317;SDS011;20582;52.196;20.952;2024-02-26T08:14:44;26.35;;;17.17;;
34317;SDS011;20582;52.196;20.952;2024-02-26T08:17:10;26.13;;;16.77;;
34317;SDS011;20582;52.196;20.952;2024-02-26T08:19:39;27.20;;;16.52;;
34317;SDS011;20582;52.196;20.952;2024-02-26T08:22:09;25.30;;;16.17;;
34317;SDS011;20582;52.196;20.952;2024-02-26T08:24:41;23.05;;;14.95;;
34317;SDS011;20582;52.196;20.952;2024-02-26T08:27:10;24.42;;;16.15;;
34317;SDS011;20582;52.196;20.952;2024-02-26T08:29:36;29.17;;;16.83;;
34317;SDS011;20582;52.196;20.952;2024-02-26T08:32:02;24.65;;;15.55;;
34317;SDS011;20582;52.196;20.952;2024-02-26T08:34:28;22.08;;;15.68;;
34317;SDS011;20582;52.196;20.952;2024-02-26T08:36:54;24.02;;;14.98;;
34317;SDS011;20582;52.196;20.952;2024-02-26T08:39:19;24.75;;;16.48;;
34317;SDS011;20582;52.196;20.952;2024-02-26T08:41:46;21.67;;;16.27;;
34317;SDS011;20582;52.196;20.952;2024-02-26T08:44:12;25.98;;;16.00;;
34317;SDS011;20582;52.196;20.952;2024-02-26T08:46:38;21.77;;;14.93;;
34317;SDS011;20582;52.196;20.952;2024-02-26T08:49:04;22.70;;;16.55;;
34317;SDS011;20582;52.196;20.952;2024-02-26T08:51:30;24.00;;;15.63;;
34317;SDS011;20582;52.196;20.952;2024-02-26T08:53:56;18.17;;;14.25;;
34317;SDS011;20582;52.196;20.952;2024-02-26T08:56:24;18.33;;;14.63;;
34317;SDS011;20582;52.196;20.952;2024-02-26T08:58:50;18.55;;;15.25;;
34317;SDS011;20582;52.196;20.952;2024-02-26T09:01:18;20.13;;;14.88;;
34317;SDS011;20582;52.196;20.952;2024-02-26T09:03:45;17.80;;;13.73;;
34317;SDS011;20582;52.196;20.952;2024-02-26T09:06:16;17.67;;;13.95;;
34317;SDS011;20582;52.196;20.952;2024-02-26T09:08:42;15.23;;;12.48;;
34317;SDS011;20582;52.196;20.952;2024-02-26T09:11:08;18.80;;;14.15;;
34317;SDS011;20582;52.196;20.952;2024-02-26T09:13:35;18.50;;;13.63;;
34317;SDS011;20582;52.196;20.952;2024-02-26T09:16:01;17.23;;;13.48;;
34317;SDS011;20582;52.196;20.952;2024-02-26T09:18:27;19.40;;;14.77;;
34317;SDS011;20582;52.196;20.952;2024-02-26T09:20:53;19.58;;;14.50;;
34317;SDS011;20582;52.196;20.952;2024-02-26T09:23:19;19.73;;;14.45;;
34317;SDS011;20582;52.196;20.952;2024-02-26T09:25:45;20.80;;;15.43;;
34317;SDS011;20582;52.196;20.952;2024-02-26T09:28:11;19.27;;;14.93;;
34317;SDS011;20582;52.196;20.952;2024-02-26T09:30:37;24.85;;;16.50;;
34317;SDS011;20582;52.196;20.952;2024-02-26T09:33:04;20.23;;;15.43;;
34317;SDS011;20582;52.196;20.952;2024-02-26T09:35:30;21.40;;;15.45;;
34317;SDS011;20582;52.196;20.952;2024-02-26T09:37:56;21.45;;;14.77;;
34317;SDS011;20582;52.196;20.952;2024-02-26T09:40:22;21.73;;;14.93;;
34317;SDS011;20582;52.196;20.952;2024-02-26T09:42:48;20.98;;;15.02;;
34317;SDS011;20582;52.196;20.952;2024-02-26T09:45:19;19.05;;;14.80;;
34317;SDS011;20582;52.196;20.952;2024-02-26T09:47:47;21.08;;;14.88;;
34317;SDS011;20582;52.196;20.952;2024-02-26T09:50:14;19.75;;;14.45;;
34317;SDS011;20582;52.196;20.952;2024-02-26T09:52:43;19.42;;;14.73;;
34317;SDS011;20582;52.196;20.952;2024-02-26T09:55:09;19.98;;;14.18;;
34317;SDS011;20582;52.196;20.952;2024-02-26T09:57:36;18.77;;;13.00;;
34317;SDS011;20582;52.196;20.952;2024-02-26T10:00:03;22.10;;;15.40;;
34317;SDS011;20582;52.196;20.952;2024-02-26T10:02:31;18.38;;;14.00;;
34317;SDS011;20582;52.196;20.952;2024-02-26T10:04:59;18.27;;;13.88;;
34317;SDS011;20582;52.196;20.952;2024-02-26T10:07:26;19.70;;;13.43;;
34317;SDS011;20582;52.196;20.952;2024-02-26T10:09:55;19.42;;;13.50;;
34317;SDS011;20582;52.196;20.952;2024-02-26T10:12:21;18.70;;;13.55;;
34317;SDS011;20582;52.196;20.952;2024-02-26T10:14:47;19.67;;;13.60;;
34317;SDS011;20582;52.196;20.952;2024-02-26T10:17:13;19.75;;;14.13;;
34317;SDS011;20582;52.196;20.952;2024-02-26T10:19:39;20.17;;;13.90;;
34317;SDS011;20582;52.196;20.952;2024-02-26T10:22:15;18.08;;;13.20;;
34317;SDS011;20582;52.196;20.952;2024-02-26T10:24:42;19.13;;;13.35;;
34317;SDS011;20582;52.196;20.952;2024-02-26T10:27:08;19.05;;;13.18;;
34317;SDS011;20582;52.196;20.952;2024-02-26T10:29:35;22.33;;;13.18;;
34317;SDS011;20582;52.196;20.952;2024-02-26T10:32:01;19.58;;;13.63;;
34317;SDS011;20582;52.196;20.952;2024-02-26T10:34:27;20.98;;;13.30;;
34317;SDS011;20582;52.196;20.952;2024-02-26T10:36:54;18.10;;;13.10;;
34317;SDS011;20582;52.196;20.952;2024-02-26T10:39:20;18.85;;;14.52;;
34317;SDS011;20582;52.196;20.952;2024-02-26T10:41:46;20.65;;;13.80;;
34317;SDS011;20582;52.196;20.952;2024-02-26T10:44:12;21.15;;;12.73;;
34317;SDS011;20582;52.196;20.952;2024-02-26T10:46:42;20.95;;;13.98;;
34317;SDS011;20582;52.196;20.952;2024-02-26T10:49:13;19.50;;;14.63;;
34317;SDS011;20582;52.196;20.952;2024-02-26T10:51:43;19.20;;;13.50;;
34317;SDS011;20582;52.196;20.952;2024-02-26T10:54:12;19.95;;;13.73;;
34317;SDS011;20582;52.196;20.952;2024-02-26T10:56:38;19.73;;;13.63;;
34317;SDS011;20582;52.196;20.952;2024-02-26T10:59:09;20.42;;;13.73;;
34317;SDS011;20582;52.196;20.952;2024-02-26T11:01:36;19.60;;;13.52;;
34317;SDS011;20582;52.196;20.952;2024-02-26T11:04:03;19.02;;;13.98;;
34317;SDS011;20582;52.196;20.952;2024-02-26T11:06:31;18.50;;;13.45;;
34317;SDS011;20582;52.196;20.952;2024-02-26T11:08:59;19.17;;;13.43;;
34317;SDS011;20582;52.196;20.952;2024-02-26T11:11:27;18.50;;;13.20;;
34317;SDS011;20582;52.196;20.952;2024-02-26T11:13:54;19.45;;;12.50;;
34317;SDS011;20582;52.196;20.952;2024-02-26T11:16:20;14.07;;;10.68;;
34317;SDS011;20582;52.196;20.952;2024-02-26T11:18:47;13.65;;;9.45;;
34317;SDS011;20582;52.196;20.952;2024-02-26T11:21:17;13.27;;;9.43;;
34317;SDS011;20582;52.196;20.952;2024-02-26T11:23:45;13.52;;;8.57;;
34317;SDS011;20582;52.196;20.952;2024-02-26T11:26:12;12.70;;;9.30;;
34317;SDS011;20582;52.196;20.952;2024-02-26T11:28:39;12.98;;;8.57;;
34317;SDS011;20582;52.196;20.952;2024-02-26T11:31:06;14.07;;;8.82;;
34317;SDS011;20582;52.196;20.952;2024-02-26T11:33:37;11.93;;;8.40;;
34317;SDS011;20582;52.196;20.952;2024-02-26T11:36:08;13.68;;;8.82;;
34317;SDS011;20582;52.196;20.952;2024-02-26T11:38:35;13.10;;;8.95;;
34317;SDS011;20582;52.196;20.952;2024-02-26T11:41:04;11.23;;;7.93;;
34317;SDS011;20582;52.196;20.952;2024-02-26T11:43:49;10.85;;;8.05;;
34317;SDS011;20582;52.196;20.952;2024-02-26T11:46:39;10.57;;;7.63;;
34317;SDS011;20582;52.196;20.952;2024-02-26T11:51:53;10.45;;;7.80;;
34317;SDS011;20582;52.196;20.952;2024-02-26T11:54:39;9.95;;;6.88;;
34317;SDS011;20582;52.196;20.952;2024-02-26T11:59:46;9.50;;;7.13;;
34317;SDS011;20582;52.196;20.952;2024-02-26T12:02:37;9.77;;;7.30;;
34317;SDS011;20582;52.196;20.952;2024-02-26T12:04:59;13.32;;;6.93;;
34317;SDS011;20582;52.196;20.952;2024-02-26T12:07:25;12.88;;;6.95;;
34317;SDS011;20582;52.196;20.952;2024-02-26T12:09:56;10.70;;;7.30;;
34317;SDS011;20582;52.196;20.952;2024-02-26T12:12:38;10.63;;;7.25;;
34317;SDS011;20582;52.196;20.952;2024-02-26T12:15:05;12.57;;;6.80;;
34317;SDS011;20582;52.196;20.952;2024-02-26T12:17:31;10.93;;;7.20;;
34317;SDS011;20582;52.196;20.952;2024-02-26T12:20:07;8.88;;;6.53;;
34317;SDS011;20582;52.196;20.952;2024-02-26T12:22:34;10.93;;;6.35;;
34317;SDS011;20582;52.196;20.952;2024-02-26T12:25:02;9.70;;;6.15;;
34317;SDS011;20582;52.196;20.952;2024-02-26T12:27:28;8.48;;;5.60;;
34317;SDS011;20582;52.196;20.952;2024-02-26T12:29:54;7.25;;;5.40;;
34317;SDS011;20582;52.196;20.952;2024-02-26T12:32:20;7.55;;;5.30;;
34317;SDS011;20582;52.196;20.952;2024-02-26T12:34:46;8.07;;;5.28;;
34317;SDS011;20582;52.196;20.952;2024-02-26T12:37:14;9.95;;;5.13;;
34317;SDS011;20582;52.196;20.952;2024-02-26T12:39:40;7.07;;;4.90;;
34317;SDS011;20582;52.196;20.952;2024-02-26T12:42:07;9.07;;;5.88;;
34317;SDS011;20582;52.196;20.952;2024-02-26T12:44:33;8.63;;;5.25;;
34317;SDS011;20582;52.196;20.952;2024-02-26T12:47:02;8.32;;;5.43;;
34317;SDS011;20582;52.196;20.952;2024-02-26T12:49:29;7.32;;;5.18;;
34317;SDS011;20582;52.196;20.952;2024-02-26T12:51:55;7.38;;;5.10;;
34317;SDS011;20582;52.196;20.952;2024-02-26T12:54:30;7.47;;;4.97;;
34317;SDS011;20582;52.196;20.952;2024-02-26T12:56:57;6.78;;;4.22;;
34317;SDS011;20582;52.196;20.952;2024-02-26T12:59:23;11.00;;;4.40;;
34317;SDS011;20582;52.196;20.952;2024-02-26T13:01:49;8.65;;;4.50;;
34317;SDS011;20582;52.196;20.952;2024-02-26T13:04:15;7.28;;;4.47;;
34317;SDS011;20582;52.196;20.952;2024-02-26T13:06:42;6.30;;;4.25;;
34317;SDS011;20582;52.196;20.952;2024-02-26T13:09:08;8.98;;;4.70;;
34317;SDS011;20582;52.196;20.952;2024-02-26T13:11:39;9.07;;;4.97;;
34317;SDS011;20582;52.196;20.952;2024-02-26T13:14:05;6.85;;;4.35;;
34317;SDS011;20582;52.196;20.952;2024-02-26T13:16:31;5.93;;;4.13;;
34317;SDS011;20582;52.196;20.952;2024-02-26T13:19:08;6.53;;;3.80;;
34317;SDS011;20582;52.196;20.952;2024-02-26T13:21:34;8.75;;;3.95;;
34317;SDS011;20582;52.196;20.952;2024-02-26T13:24:00;6.47;;;3.97;;
34317;SDS011;20582;52.196;20.952;2024-02-26T13:26:26;6.40;;;4.13;;
34317;SDS011;20582;52.196;20.952;2024-02-26T13:28:59;6.60;;;4.05;;
34317;SDS011;20582;52.196;20.952;2024-02-26T13:31:25;7.47;;;4.32;;
34317;SDS011;20582;52.196;20.952;2024-02-26T13:33:51;7.35;;;3.90;;
34317;SDS011;20582;52.196;20.952;2024-02-26T13:36:20;5.95;;;3.63;;
34317;SDS011;20582;52.196;20.952;2024-02-26T13:38:52;5.53;;;3.60;;
34317;SDS011;20582;52.196;20.952;2024-02-26T13:41:19;6.85;;;3.70;;
34317;SDS011;20582;52.196;20.952;2024-02-26T13:43:46;6.45;;;3.60;;
34317;SDS011;20582;52.196;20.952;2024-02-26T13:46:14;4.85;;;3.30;;
34317;SDS011;20582;52.196;20.952;2024-02-26T13:48:42;5.45;;;3.17;;
34317;SDS011;20582;52.196;20.952;2024-02-26T13:51:08;6.25;;;3.50;;
34317;SDS011;20582;52.196;20.952;2024-02-26T13:53:34;6.28;;;3.35;;
34317;SDS011;20582;52.196;20.952;2024-02-26T13:56:00;5.82;;;3.30;;
34317;SDS011;20582;52.196;20.952;2024-02-26T13:58:27;6.18;;;3.22;;
34317;SDS011;20582;52.196;20.952;2024-02-26T14:00:54;7.40;;;3.85;;
34317;SDS011;20582;52.196;20.952;2024-02-26T14:03:20;6.03;;;3.30;;
34317;SDS011;20582;52.196;20.952;2024-02-26T14:05:49;5.55;;;3.30;;
34317;SDS011;20582;52.196;20.952;2024-02-26T14:08:15;6.78;;;3.50;;
34317;SDS011;20582;52.196;20.952;2024-02-26T14:10:41;6.30;;;3.60;;
34317;SDS011;20582;52.196;20.952;2024-02-26T14:13:07;6.65;;;3.55;;
34317;SDS011;20582;52.196;20.952;2024-02-26T14:15:35;6.35;;;3.53;;
34317;SDS011;20582;52.196;20.952;2024-02-26T14:18:03;8.63;;;3.58;;
34317;SDS011;20582;52.196;20.952;2024-02-26T14:20:29;5.57;;;3.20;;